sensor_id;sensor_type;location;lat;lon;timestamp;temperature;humidity
2867;DHT22;1441;48.886;8.728;2022-09-09T00:00:19;16.60;87.90
2867;DHT22;1441;48.886;8.728;2022-09-09T00:02:53;16.80;87.30
2867;DHT22;1441;48.886;8.728;2022-09-09T00:05:31;17.00;86.30
2867;DHT22;1441;48.886;8.728;2022-09-09T00:08:00;17.00;85.80
2867;DHT22;1441;48.886;8.728;2022-09-09T00:10:45;17.10;85.50
2867;DHT22;1441;48.886;8.728;2022-09-09T00:13:52;17.10;85.30
2867;DHT22;1441;48.886;8.728;2022-09-09T00:16:27;17.20;85.90
2867;DHT22;1441;48.886;8.728;2022-09-09T00:19:09;17.10;86.90
2867;DHT22;1441;48.886;8.728;2022-09-09T00:27:35;16.90;88.40
2867;DHT22;1441;48.886;8.728;2022-09-09T00:30:20;16.90;88.20
2867;DHT22;1441;48.886;8.728;2022-09-09T00:32:49;16.80;88.60
2867;DHT22;1441;48.886;8.728;2022-09-09T00:37:45;16.70;88.80
2867;DHT22;1441;48.886;8.728;2022-09-09T00:40:34;16.60;89.20
2867;DHT22;1441;48.886;8.728;2022-09-09T00:43:30;16.80;88.40
2867;DHT22;1441;48.886;8.728;2022-09-09T00:46:21;16.70;89.40
2867;DHT22;1441;48.886;8.728;2022-09-09T00:49:07;16.90;89.00
2867;DHT22;1441;48.886;8.728;2022-09-09T00:54:33;17.10;87.60
2867;DHT22;1441;48.886;8.728;2022-09-09T00:57:12;17.10;87.60
2867;DHT22;1441;48.886;8.728;2022-09-09T01:02:36;17.10;87.90
2867;DHT22;1441;48.886;8.728;2022-09-09T01:08:08;16.80;88.90
2867;DHT22;1441;48.886;8.728;2022-09-09T01:10:43;16.70;89.40
2867;DHT22;1441;48.886;8.728;2022-09-09T01:13:19;16.70;89.50
2867;DHT22;1441;48.886;8.728;2022-09-09T01:15:48;16.70;89.40
2867;DHT22;1441;48.886;8.728;2022-09-09T01:18:17;16.70;89.70
2867;DHT22;1441;48.886;8.728;2022-09-09T01:28:39;16.60;90.00
2867;DHT22;1441;48.886;8.728;2022-09-09T01:31:06;16.60;90.00
2867;DHT22;1441;48.886;8.728;2022-09-09T01:33:32;16.60;90.00
2867;DHT22;1441;48.886;8.728;2022-09-09T01:36:03;16.60;89.50
2867;DHT22;1441;48.886;8.728;2022-09-09T01:38:33;16.60;89.50
2867;DHT22;1441;48.886;8.728;2022-09-09T01:40:59;16.60;90.10
2867;DHT22;1441;48.886;8.728;2022-09-09T01:43:25;16.60;92.40
2867;DHT22;1441;48.886;8.728;2022-09-09T01:45:54;16.50;94.40
2867;DHT22;1441;48.886;8.728;2022-09-09T01:48:22;16.40;95.40
2867;DHT22;1441;48.886;8.728;2022-09-09T01:50:48;16.30;96.40
2867;DHT22;1441;48.886;8.728;2022-09-09T01:53:17;16.30;96.70
2867;DHT22;1441;48.886;8.728;2022-09-09T01:55:51;16.30;96.90
2867;DHT22;1441;48.886;8.728;2022-09-09T02:01:42;16.10;96.70
2867;DHT22;1441;48.886;8.728;2022-09-09T02:04:27;16.10;97.30
2867;DHT22;1441;48.886;8.728;2022-09-09T02:06:56;16.00;98.00
2867;DHT22;1441;48.886;8.728;2022-09-09T02:09:24;16.00;97.70
2867;DHT22;1441;48.886;8.728;2022-09-09T02:11:56;15.90;98.10
2867;DHT22;1441;48.886;8.728;2022-09-09T02:14:28;15.90;97.90
2867;DHT22;1441;48.886;8.728;2022-09-09T02:17:06;15.90;98.00
2867;DHT22;1441;48.886;8.728;2022-09-09T02:19:39;15.90;97.60
2867;DHT22;1441;48.886;8.728;2022-09-09T02:22:07;15.90;97.90
2867;DHT22;1441;48.886;8.728;2022-09-09T02:24:36;16.00;97.50
2867;DHT22;1441;48.886;8.728;2022-09-09T02:27:04;16.10;96.30
2867;DHT22;1441;48.886;8.728;2022-09-09T02:29:34;16.10;95.30
2867;DHT22;1441;48.886;8.728;2022-09-09T02:32:03;16.30;94.30
2867;DHT22;1441;48.886;8.728;2022-09-09T02:34:32;16.50;93.60
2867;DHT22;1441;48.886;8.728;2022-09-09T02:37:00;16.60;92.20
2867;DHT22;1441;48.886;8.728;2022-09-09T02:39:28;16.50;92.40
2867;DHT22;1441;48.886;8.728;2022-09-09T02:41:54;16.40;92.90
2867;DHT22;1441;48.886;8.728;2022-09-09T02:44:19;16.40;93.40
2867;DHT22;1441;48.886;8.728;2022-09-09T02:47:07;16.30;94.40
2867;DHT22;1441;48.886;8.728;2022-09-09T02:49:48;16.10;95.30
2867;DHT22;1441;48.886;8.728;2022-09-09T02:52:21;15.90;95.80
2867;DHT22;1441;48.886;8.728;2022-09-09T02:54:55;16.10;94.10
2867;DHT22;1441;48.886;8.728;2022-09-09T02:57:26;16.20;93.60
2867;DHT22;1441;48.886;8.728;2022-09-09T02:59:53;16.20;93.20
2867;DHT22;1441;48.886;8.728;2022-09-09T03:02:22;16.10;93.10
2867;DHT22;1441;48.886;8.728;2022-09-09T03:04:47;16.20;92.60
2867;DHT22;1441;48.886;8.728;2022-09-09T03:07:18;16.10;92.60
2867;DHT22;1441;48.886;8.728;2022-09-09T03:09:44;16.10;92.30
2867;DHT22;1441;48.886;8.728;2022-09-09T03:12:10;16.00;92.80
2867;DHT22;1441;48.886;8.728;2022-09-09T03:14:37;16.10;92.50
2867;DHT22;1441;48.886;8.728;2022-09-09T03:17:04;16.10;91.40
2867;DHT22;1441;48.886;8.728;2022-09-09T03:19:29;16.20;91.20
2867;DHT22;1441;48.886;8.728;2022-09-09T03:21:55;16.30;90.80
2867;DHT22;1441;48.886;8.728;2022-09-09T03:24:21;16.20;90.50
2867;DHT22;1441;48.886;8.728;2022-09-09T03:26:48;16.10;91.10
2867;DHT22;1441;48.886;8.728;2022-09-09T03:29:13;16.10;91.80
2867;DHT22;1441;48.886;8.728;2022-09-09T03:31:40;16.00;92.40
2867;DHT22;1441;48.886;8.728;2022-09-09T03:34:06;15.90;92.80
2867;DHT22;1441;48.886;8.728;2022-09-09T03:36:32;15.90;92.40
2867;DHT22;1441;48.886;8.728;2022-09-09T03:38:58;15.80;92.40
2867;DHT22;1441;48.886;8.728;2022-09-09T03:41:24;15.90;92.20
2867;DHT22;1441;48.886;8.728;2022-09-09T03:43:53;15.90;92.10
2867;DHT22;1441;48.886;8.728;2022-09-09T03:46:20;15.80;92.50
2867;DHT22;1441;48.886;8.728;2022-09-09T03:48:46;15.80;92.30
2867;DHT22;1441;48.886;8.728;2022-09-09T03:51:12;15.80;91.80
2867;DHT22;1441;48.886;8.728;2022-09-09T03:53:38;16.00;90.60
2867;DHT22;1441;48.886;8.728;2022-09-09T03:56:05;16.00;90.20
2867;DHT22;1441;48.886;8.728;2022-09-09T03:58:35;16.00;90.10
2867;DHT22;1441;48.886;8.728;2022-09-09T04:01:04;16.00;90.60
2867;DHT22;1441;48.886;8.728;2022-09-09T04:03:30;15.90;90.90
2867;DHT22;1441;48.886;8.728;2022-09-09T04:05:57;16.00;90.80
2867;DHT22;1441;48.886;8.728;2022-09-09T04:08:24;16.00;90.50
2867;DHT22;1441;48.886;8.728;2022-09-09T04:10:51;16.10;89.90
2867;DHT22;1441;48.886;8.728;2022-09-09T04:13:17;16.10;89.20
2867;DHT22;1441;48.886;8.728;2022-09-09T04:15:44;16.10;89.40
2867;DHT22;1441;48.886;8.728;2022-09-09T04:18:15;16.10;89.20
2867;DHT22;1441;48.886;8.728;2022-09-09T04:20:40;16.10;89.00
2867;DHT22;1441;48.886;8.728;2022-09-09T04:23:07;16.10;89.20
2867;DHT22;1441;48.886;8.728;2022-09-09T04:25:32;16.10;88.70
2867;DHT22;1441;48.886;8.728;2022-09-09T04:27:59;16.20;88.80
2867;DHT22;1441;48.886;8.728;2022-09-09T04:30:24;16.10;89.20
2867;DHT22;1441;48.886;8.728;2022-09-09T04:32:50;16.10;89.10
2867;DHT22;1441;48.886;8.728;2022-09-09T04:35:16;16.20;88.70
2867;DHT22;1441;48.886;8.728;2022-09-09T04:37:41;16.10;88.90
2867;DHT22;1441;48.886;8.728;2022-09-09T04:40:08;16.10;89.20
2867;DHT22;1441;48.886;8.728;2022-09-09T04:42:38;16.20;88.80
2867;DHT22;1441;48.886;8.728;2022-09-09T04:45:05;16.20;88.80
2867;DHT22;1441;48.886;8.728;2022-09-09T04:47:32;16.20;88.70
2867;DHT22;1441;48.886;8.728;2022-09-09T04:49:58;16.20;88.90
2867;DHT22;1441;48.886;8.728;2022-09-09T04:52:23;16.20;89.10
2867;DHT22;1441;48.886;8.728;2022-09-09T04:54:49;16.20;88.70
2867;DHT22;1441;48.886;8.728;2022-09-09T04:57:14;16.30;88.00
2867;DHT22;1441;48.886;8.728;2022-09-09T04:59:40;16.30;87.90
2867;DHT22;1441;48.886;8.728;2022-09-09T05:02:06;16.30;88.00
2867;DHT22;1441;48.886;8.728;2022-09-09T05:04:32;16.30;88.30
2867;DHT22;1441;48.886;8.728;2022-09-09T05:06:58;16.20;88.40
2867;DHT22;1441;48.886;8.728;2022-09-09T05:09:24;16.20;89.00
2867;DHT22;1441;48.886;8.728;2022-09-09T05:11:50;16.00;89.50
2867;DHT22;1441;48.886;8.728;2022-09-09T05:14:15;16.00;89.80
2867;DHT22;1441;48.886;8.728;2022-09-09T05:16:41;16.00;89.70
2867;DHT22;1441;48.886;8.728;2022-09-09T05:19:09;16.00;89.70
2867;DHT22;1441;48.886;8.728;2022-09-09T05:21:35;16.00;89.90
2867;DHT22;1441;48.886;8.728;2022-09-09T05:24:01;16.00;90.00
2867;DHT22;1441;48.886;8.728;2022-09-09T05:26:27;16.00;90.30
2867;DHT22;1441;48.886;8.728;2022-09-09T05:28:54;16.00;90.20
2867;DHT22;1441;48.886;8.728;2022-09-09T05:31:20;15.90;90.80
2867;DHT22;1441;48.886;8.728;2022-09-09T05:33:47;15.80;91.40
2867;DHT22;1441;48.886;8.728;2022-09-09T05:36:17;15.90;91.20
2867;DHT22;1441;48.886;8.728;2022-09-09T05:38:43;16.00;90.60
2867;DHT22;1441;48.886;8.728;2022-09-09T05:41:10;16.10;90.10
2867;DHT22;1441;48.886;8.728;2022-09-09T05:43:37;16.10;90.30
2867;DHT22;1441;48.886;8.728;2022-09-09T05:46:11;16.10;90.00
2867;DHT22;1441;48.886;8.728;2022-09-09T05:48:38;16.20;89.90
2867;DHT22;1441;48.886;8.728;2022-09-09T05:51:06;16.30;89.50
2867;DHT22;1441;48.886;8.728;2022-09-09T05:53:35;16.30;89.40
2867;DHT22;1441;48.886;8.728;2022-09-09T05:56:03;16.30;89.00
2867;DHT22;1441;48.886;8.728;2022-09-09T05:58:33;16.30;89.20
2867;DHT22;1441;48.886;8.728;2022-09-09T06:01:08;16.50;88.70
2867;DHT22;1441;48.886;8.728;2022-09-09T06:03:38;16.50;88.60
2867;DHT22;1441;48.886;8.728;2022-09-09T06:06:07;16.50;88.50
2867;DHT22;1441;48.886;8.728;2022-09-09T06:08:38;16.50;88.80
2867;DHT22;1441;48.886;8.728;2022-09-09T06:11:05;16.50;88.60
2867;DHT22;1441;48.886;8.728;2022-09-09T06:13:31;16.40;89.30
2867;DHT22;1441;48.886;8.728;2022-09-09T06:15:57;16.30;89.40
2867;DHT22;1441;48.886;8.728;2022-09-09T06:18:24;16.40;89.30
2867;DHT22;1441;48.886;8.728;2022-09-09T06:20:57;16.70;88.50
2867;DHT22;1441;48.886;8.728;2022-09-09T06:23:23;16.80;88.50
2867;DHT22;1441;48.886;8.728;2022-09-09T06:25:49;17.00;87.90
2867;DHT22;1441;48.886;8.728;2022-09-09T06:28:15;17.10;87.70
2867;DHT22;1441;48.886;8.728;2022-09-09T06:30:41;17.20;87.40
2867;DHT22;1441;48.886;8.728;2022-09-09T06:33:07;17.50;86.30
2867;DHT22;1441;48.886;8.728;2022-09-09T06:35:32;19.00;82.50
2867;DHT22;1441;48.886;8.728;2022-09-09T06:37:58;19.90;78.70
2867;DHT22;1441;48.886;8.728;2022-09-09T06:40:24;19.90;78.90
2867;DHT22;1441;48.886;8.728;2022-09-09T06:42:50;19.30;79.90
2867;DHT22;1441;48.886;8.728;2022-09-09T06:45:15;19.50;80.30
2867;DHT22;1441;48.886;8.728;2022-09-09T06:47:42;19.10;80.30
2867;DHT22;1441;48.886;8.728;2022-09-09T06:50:07;18.70;82.50
2867;DHT22;1441;48.886;8.728;2022-09-09T06:52:33;18.50;82.90
2867;DHT22;1441;48.886;8.728;2022-09-09T06:54:59;18.40;83.60
2867;DHT22;1441;48.886;8.728;2022-09-09T06:57:24;20.00;80.00
2867;DHT22;1441;48.886;8.728;2022-09-09T06:59:50;21.70;74.30
2867;DHT22;1441;48.886;8.728;2022-09-09T07:02:16;23.30;69.70
2867;DHT22;1441;48.886;8.728;2022-09-09T07:04:41;25.70;64.40
2867;DHT22;1441;48.886;8.728;2022-09-09T07:07:07;25.90;62.70
2867;DHT22;1441;48.886;8.728;2022-09-09T07:09:35;24.00;66.40
2867;DHT22;1441;48.886;8.728;2022-09-09T07:12:01;23.60;68.00
2867;DHT22;1441;48.886;8.728;2022-09-09T07:14:26;23.00;69.60
2867;DHT22;1441;48.886;8.728;2022-09-09T07:16:52;23.30;68.80
2867;DHT22;1441;48.886;8.728;2022-09-09T07:19:18;23.00;69.70
2867;DHT22;1441;48.886;8.728;2022-09-09T07:21:43;23.90;68.10
2867;DHT22;1441;48.886;8.728;2022-09-09T07:24:10;25.60;64.90
2867;DHT22;1441;48.886;8.728;2022-09-09T07:26:37;26.10;62.20
2867;DHT22;1441;48.886;8.728;2022-09-09T07:29:03;25.70;62.80
2867;DHT22;1441;48.886;8.728;2022-09-09T07:31:31;25.30;63.60
2867;DHT22;1441;48.886;8.728;2022-09-09T07:33:58;24.00;66.80
2867;DHT22;1441;48.886;8.728;2022-09-09T07:36:33;22.90;69.50
2867;DHT22;1441;48.886;8.728;2022-09-09T07:39:05;22.10;72.00
2867;DHT22;1441;48.886;8.728;2022-09-09T07:41:51;21.40;73.70
2867;DHT22;1441;48.886;8.728;2022-09-09T07:44:22;22.60;71.50
2867;DHT22;1441;48.886;8.728;2022-09-09T07:46:48;23.70;68.40
2867;DHT22;1441;48.886;8.728;2022-09-09T07:49:14;23.50;69.00
2867;DHT22;1441;48.886;8.728;2022-09-09T07:51:43;23.90;68.70
2867;DHT22;1441;48.886;8.728;2022-09-09T07:54:14;26.10;63.90
2867;DHT22;1441;48.886;8.728;2022-09-09T07:56:41;28.10;58.70
2867;DHT22;1441;48.886;8.728;2022-09-09T07:59:07;28.70;57.60
2867;DHT22;1441;48.886;8.728;2022-09-09T08:01:37;30.00;55.60
2867;DHT22;1441;48.886;8.728;2022-09-09T08:04:16;31.60;52.10
2867;DHT22;1441;48.886;8.728;2022-09-09T08:06:54;30.60;53.10
2867;DHT22;1441;48.886;8.728;2022-09-09T08:09:21;32.10;50.60
2867;DHT22;1441;48.886;8.728;2022-09-09T08:11:48;33.10;49.10
2867;DHT22;1441;48.886;8.728;2022-09-09T08:14:13;33.10;48.00
2867;DHT22;1441;48.886;8.728;2022-09-09T08:16:44;31.20;51.30
2867;DHT22;1441;48.886;8.728;2022-09-09T08:19:10;28.80;55.00
2867;DHT22;1441;48.886;8.728;2022-09-09T08:21:38;26.30;60.30
2867;DHT22;1441;48.886;8.728;2022-09-09T08:24:08;24.50;64.60
2867;DHT22;1441;48.886;8.728;2022-09-09T08:26:38;24.60;64.20
2867;DHT22;1441;48.886;8.728;2022-09-09T08:29:06;25.60;63.00
2867;DHT22;1441;48.886;8.728;2022-09-09T08:31:37;27.70;58.60
2867;DHT22;1441;48.886;8.728;2022-09-09T08:34:04;28.80;55.70
2867;DHT22;1441;48.886;8.728;2022-09-09T08:36:33;29.90;53.70
2867;DHT22;1441;48.886;8.728;2022-09-09T08:39:00;30.30;52.50
2867;DHT22;1441;48.886;8.728;2022-09-09T08:47:24;30.20;52.80
2867;DHT22;1441;48.886;8.728;2022-09-09T08:53:00;32.10;50.00
2867;DHT22;1441;48.886;8.728;2022-09-09T08:58:02;28.10;53.80
2867;DHT22;1441;48.886;8.728;2022-09-09T09:11:41;25.80;61.20
2867;DHT22;1441;48.886;8.728;2022-09-09T09:14:16;25.50;61.30
2867;DHT22;1441;48.886;8.728;2022-09-09T09:17:05;25.00;62.60
2867;DHT22;1441;48.886;8.728;2022-09-09T09:19:34;24.80;63.30
2867;DHT22;1441;48.886;8.728;2022-09-09T09:22:18;23.70;64.60
2867;DHT22;1441;48.886;8.728;2022-09-09T09:24:53;22.80;66.20
2867;DHT22;1441;48.886;8.728;2022-09-09T09:28:16;22.40;66.10
2867;DHT22;1441;48.886;8.728;2022-09-09T09:30:22;22.20;68.10
2867;DHT22;1441;48.886;8.728;2022-09-09T09:35:20;21.70;69.30
2867;DHT22;1441;48.886;8.728;2022-09-09T09:37:45;21.50;70.30
2867;DHT22;1441;48.886;8.728;2022-09-09T09:40:17;21.00;73.90
2867;DHT22;1441;48.886;8.728;2022-09-09T09:42:54;20.50;76.60
2867;DHT22;1441;48.886;8.728;2022-09-09T09:45:41;20.50;77.40
2867;DHT22;1441;48.886;8.728;2022-09-09T09:48:12;21.80;75.30
2867;DHT22;1441;48.886;8.728;2022-09-09T09:50:53;23.90;68.00
2867;DHT22;1441;48.886;8.728;2022-09-09T09:53:25;25.60;63.70
2867;DHT22;1441;48.886;8.728;2022-09-09T09:56:01;25.90;61.30
2867;DHT22;1441;48.886;8.728;2022-09-09T09:58:30;26.30;60.40
2867;DHT22;1441;48.886;8.728;2022-09-09T10:00:57;26.90;59.00
2867;DHT22;1441;48.886;8.728;2022-09-09T10:03:35;25.70;59.30
2867;DHT22;1441;48.886;8.728;2022-09-09T10:06:03;25.20;60.30
2867;DHT22;1441;48.886;8.728;2022-09-09T10:08:29;24.80;61.10
2867;DHT22;1441;48.886;8.728;2022-09-09T10:19:34;24.60;59.40
2867;DHT22;1441;48.886;8.728;2022-09-09T10:22:28;23.70;61.40
2867;DHT22;1441;48.886;8.728;2022-09-09T10:30:19;21.90;67.70
2867;DHT22;1441;48.886;8.728;2022-09-09T10:33:01;21.00;70.70
2867;DHT22;1441;48.886;8.728;2022-09-09T10:38:22;20.30;79.70
2867;DHT22;1441;48.886;8.728;2022-09-09T10:43:50;20.20;80.00
2867;DHT22;1441;48.886;8.728;2022-09-09T10:52:14;19.80;80.60
2867;DHT22;1441;48.886;8.728;2022-09-09T10:54:59;19.60;80.80
2867;DHT22;1441;48.886;8.728;2022-09-09T10:59:58;19.70;79.80
2867;DHT22;1441;48.886;8.728;2022-09-09T11:02:30;19.80;79.70
2867;DHT22;1441;48.886;8.728;2022-09-09T11:13:15;18.80;83.90
2867;DHT22;1441;48.886;8.728;2022-09-09T11:15:49;18.70;84.40
2867;DHT22;1441;48.886;8.728;2022-09-09T11:18:21;18.60;85.40
2867;DHT22;1441;48.886;8.728;2022-09-09T11:20:53;18.40;86.10
2867;DHT22;1441;48.886;8.728;2022-09-09T11:23:30;18.20;86.40
2867;DHT22;1441;48.886;8.728;2022-09-09T11:26:01;18.10;88.50
2867;DHT22;1441;48.886;8.728;2022-09-09T11:31:53;17.90;87.70
2867;DHT22;1441;48.886;8.728;2022-09-09T11:37:44;17.70;89.10
2867;DHT22;1441;48.886;8.728;2022-09-09T11:40:26;17.80;89.60
2867;DHT22;1441;48.886;8.728;2022-09-09T11:43:09;17.80;88.30
2867;DHT22;1441;48.886;8.728;2022-09-09T11:45:38;18.00;88.70
2867;DHT22;1441;48.886;8.728;2022-09-09T11:48:05;18.00;88.50
2867;DHT22;1441;48.886;8.728;2022-09-09T11:50:34;18.20;87.80
2867;DHT22;1441;48.886;8.728;2022-09-09T11:55:39;18.80;84.90
2867;DHT22;1441;48.886;8.728;2022-09-09T11:58:15;19.20;85.70
2867;DHT22;1441;48.886;8.728;2022-09-09T12:00:44;19.50;84.30
2867;DHT22;1441;48.886;8.728;2022-09-09T12:03:49;19.90;83.50
2867;DHT22;1441;48.886;8.728;2022-09-09T12:06:19;20.10;82.10
2867;DHT22;1441;48.886;8.728;2022-09-09T12:08:52;20.30;82.20
2867;DHT22;1441;48.886;8.728;2022-09-09T12:11:29;20.70;80.60
2867;DHT22;1441;48.886;8.728;2022-09-09T12:13:58;21.00;78.80
2867;DHT22;1441;48.886;8.728;2022-09-09T12:16:31;21.30;78.20
2867;DHT22;1441;48.886;8.728;2022-09-09T12:19:07;21.60;78.10
2867;DHT22;1441;48.886;8.728;2022-09-09T12:22:04;21.90;76.80
2867;DHT22;1441;48.886;8.728;2022-09-09T12:24:43;22.10;74.70
2867;DHT22;1441;48.886;8.728;2022-09-09T12:27:20;22.40;74.90
2867;DHT22;1441;48.886;8.728;2022-09-09T12:30:36;22.50;72.40
2867;DHT22;1441;48.886;8.728;2022-09-09T12:33:11;22.60;72.90
2867;DHT22;1441;48.886;8.728;2022-09-09T12:35:40;22.70;71.10
2867;DHT22;1441;48.886;8.728;2022-09-09T12:38:12;22.90;70.60
2867;DHT22;1441;48.886;8.728;2022-09-09T12:40:39;23.20;70.10
2867;DHT22;1441;48.886;8.728;2022-09-09T12:43:21;23.30;69.30
2867;DHT22;1441;48.886;8.728;2022-09-09T12:45:48;23.40;68.30
2867;DHT22;1441;48.886;8.728;2022-09-09T12:48:18;23.20;68.80
2867;DHT22;1441;48.886;8.728;2022-09-09T12:50:49;22.90;67.50
2867;DHT22;1441;48.886;8.728;2022-09-09T12:53:33;22.70;68.50
2867;DHT22;1441;48.886;8.728;2022-09-09T12:56:01;22.60;69.70
2867;DHT22;1441;48.886;8.728;2022-09-09T12:58:29;23.00;69.20
2867;DHT22;1441;48.886;8.728;2022-09-09T13:00:59;23.30;67.40
2867;DHT22;1441;48.886;8.728;2022-09-09T13:03:26;23.60;66.40
2867;DHT22;1441;48.886;8.728;2022-09-09T13:05:52;23.30;66.30
2867;DHT22;1441;48.886;8.728;2022-09-09T13:08:19;23.40;66.90
2867;DHT22;1441;48.886;8.728;2022-09-09T13:10:57;23.60;66.10
2867;DHT22;1441;48.886;8.728;2022-09-09T13:13:30;23.10;66.90
2867;DHT22;1441;48.886;8.728;2022-09-09T13:16:00;22.90;67.60
2867;DHT22;1441;48.886;8.728;2022-09-09T13:18:29;22.70;67.20
2867;DHT22;1441;48.886;8.728;2022-09-09T13:20:56;22.80;67.90
2867;DHT22;1441;48.886;8.728;2022-09-09T13:23:27;22.90;67.70
2867;DHT22;1441;48.886;8.728;2022-09-09T13:26:22;23.50;65.40
2867;DHT22;1441;48.886;8.728;2022-09-09T13:28:48;23.70;64.70
2867;DHT22;1441;48.886;8.728;2022-09-09T13:33:47;23.90;62.80
2867;DHT22;1441;48.886;8.728;2022-09-09T13:36:13;24.00;63.60
2867;DHT22;1441;48.886;8.728;2022-09-09T13:38:55;23.80;64.10
2867;DHT22;1441;48.886;8.728;2022-09-09T13:41:23;23.60;64.50
2867;DHT22;1441;48.886;8.728;2022-09-09T13:43:50;23.30;63.90
2867;DHT22;1441;48.886;8.728;2022-09-09T13:46:39;23.30;65.70
2867;DHT22;1441;48.886;8.728;2022-09-09T13:51:48;22.80;65.50
2867;DHT22;1441;48.886;8.728;2022-09-09T13:54:17;22.70;66.10
2867;DHT22;1441;48.886;8.728;2022-09-09T13:56:44;22.60;66.30
2867;DHT22;1441;48.886;8.728;2022-09-09T13:59:15;22.50;65.80
2867;DHT22;1441;48.886;8.728;2022-09-09T14:01:42;22.50;65.50
2867;DHT22;1441;48.886;8.728;2022-09-09T14:04:08;22.50;66.70
2867;DHT22;1441;48.886;8.728;2022-09-09T14:06:35;22.30;66.70
2867;DHT22;1441;48.886;8.728;2022-09-09T14:09:10;22.10;67.60
2867;DHT22;1441;48.886;8.728;2022-09-09T14:11:36;22.10;68.20
2867;DHT22;1441;48.886;8.728;2022-09-09T14:14:01;22.00;68.30
2867;DHT22;1441;48.886;8.728;2022-09-09T14:16:28;22.10;66.50
2867;DHT22;1441;48.886;8.728;2022-09-09T14:18:53;22.00;66.10
2867;DHT22;1441;48.886;8.728;2022-09-09T14:21:21;22.10;66.10
2867;DHT22;1441;48.886;8.728;2022-09-09T14:23:47;22.10;67.60
2867;DHT22;1441;48.886;8.728;2022-09-09T14:26:13;22.20;69.50
2867;DHT22;1441;48.886;8.728;2022-09-09T14:28:39;22.10;68.20
2867;DHT22;1441;48.886;8.728;2022-09-09T14:31:06;22.20;67.80
2867;DHT22;1441;48.886;8.728;2022-09-09T14:33:33;22.30;64.70
2867;DHT22;1441;48.886;8.728;2022-09-09T14:36:00;22.10;64.80
2867;DHT22;1441;48.886;8.728;2022-09-09T14:38:30;22.00;66.40
2867;DHT22;1441;48.886;8.728;2022-09-09T14:40:56;22.00;67.00
2867;DHT22;1441;48.886;8.728;2022-09-09T14:43:23;22.30;66.10
2867;DHT22;1441;48.886;8.728;2022-09-09T14:45:49;22.50;64.70
2867;DHT22;1441;48.886;8.728;2022-09-09T14:48:17;22.80;64.90
2867;DHT22;1441;48.886;8.728;2022-09-09T14:50:43;23.10;64.60
2867;DHT22;1441;48.886;8.728;2022-09-09T14:53:09;23.40;63.90
2867;DHT22;1441;48.886;8.728;2022-09-09T14:55:35;23.70;61.30
2867;DHT22;1441;48.886;8.728;2022-09-09T14:58:01;23.90;62.00
2867;DHT22;1441;48.886;8.728;2022-09-09T15:00:27;24.00;61.00
2867;DHT22;1441;48.886;8.728;2022-09-09T15:02:55;24.00;61.50
2867;DHT22;1441;48.886;8.728;2022-09-09T15:05:22;23.90;61.90
2867;DHT22;1441;48.886;8.728;2022-09-09T15:07:47;24.10;60.90
2867;DHT22;1441;48.886;8.728;2022-09-09T15:10:16;24.40;60.80
2867;DHT22;1441;48.886;8.728;2022-09-09T15:12:43;24.30;61.10
2867;DHT22;1441;48.886;8.728;2022-09-09T15:15:09;24.00;62.40
2867;DHT22;1441;48.886;8.728;2022-09-09T15:17:34;24.10;61.90
2867;DHT22;1441;48.886;8.728;2022-09-09T15:20:03;24.00;62.20
2867;DHT22;1441;48.886;8.728;2022-09-09T15:22:30;23.70;62.60
2867;DHT22;1441;48.886;8.728;2022-09-09T15:24:55;23.20;63.10
2867;DHT22;1441;48.886;8.728;2022-09-09T15:27:21;22.80;64.10
2867;DHT22;1441;48.886;8.728;2022-09-09T15:29:48;22.50;65.50
2867;DHT22;1441;48.886;8.728;2022-09-09T15:32:13;22.50;65.40
2867;DHT22;1441;48.886;8.728;2022-09-09T15:34:39;22.10;66.60
2867;DHT22;1441;48.886;8.728;2022-09-09T15:37:05;21.90;67.10
2867;DHT22;1441;48.886;8.728;2022-09-09T15:39:31;21.60;69.00
2867;DHT22;1441;48.886;8.728;2022-09-09T15:41:57;21.50;69.10
2867;DHT22;1441;48.886;8.728;2022-09-09T15:44:22;21.30;69.00
2867;DHT22;1441;48.886;8.728;2022-09-09T15:46:52;20.90;70.10
2867;DHT22;1441;48.886;8.728;2022-09-09T15:49:25;20.70;71.40
2867;DHT22;1441;48.886;8.728;2022-09-09T15:51:56;20.30;74.70
2867;DHT22;1441;48.886;8.728;2022-09-09T15:54:24;19.70;81.20
2867;DHT22;1441;48.886;8.728;2022-09-09T15:56:55;19.20;83.80
2867;DHT22;1441;48.886;8.728;2022-09-09T15:59:22;18.80;86.10
2867;DHT22;1441;48.886;8.728;2022-09-09T16:01:48;18.40;87.10
2867;DHT22;1441;48.886;8.728;2022-09-09T16:04:17;18.50;87.20
2867;DHT22;1441;48.886;8.728;2022-09-09T16:06:52;18.00;88.00
2867;DHT22;1441;48.886;8.728;2022-09-09T16:09:18;17.90;88.20
2867;DHT22;1441;48.886;8.728;2022-09-09T16:11:44;17.90;86.00
2867;DHT22;1441;48.886;8.728;2022-09-09T16:14:10;17.90;86.10
2867;DHT22;1441;48.886;8.728;2022-09-09T16:16:36;17.70;88.30
2867;DHT22;1441;48.886;8.728;2022-09-09T16:19:07;17.50;88.30
2867;DHT22;1441;48.886;8.728;2022-09-09T16:21:37;17.40;89.80
2867;DHT22;1441;48.886;8.728;2022-09-09T16:24:03;17.30;90.50
2867;DHT22;1441;48.886;8.728;2022-09-09T16:26:32;17.40;91.20
2867;DHT22;1441;48.886;8.728;2022-09-09T16:28:58;17.50;89.70
2867;DHT22;1441;48.886;8.728;2022-09-09T16:31:26;17.50;90.40
2867;DHT22;1441;48.886;8.728;2022-09-09T16:33:52;17.70;90.30
2867;DHT22;1441;48.886;8.728;2022-09-09T16:36:24;18.00;89.70
2867;DHT22;1441;48.886;8.728;2022-09-09T16:38:58;18.00;89.90
2867;DHT22;1441;48.886;8.728;2022-09-09T16:41:24;18.20;91.30
2867;DHT22;1441;48.886;8.728;2022-09-09T16:43:54;18.30;90.00
2867;DHT22;1441;48.886;8.728;2022-09-09T16:46:21;18.50;88.70
2867;DHT22;1441;48.886;8.728;2022-09-09T16:48:47;18.40;87.80
2867;DHT22;1441;48.886;8.728;2022-09-09T16:51:19;18.30;89.20
2867;DHT22;1441;48.886;8.728;2022-09-09T16:53:46;18.20;88.00
2867;DHT22;1441;48.886;8.728;2022-09-09T16:56:18;18.20;86.90
2867;DHT22;1441;48.886;8.728;2022-09-09T16:58:52;18.00;87.70
2867;DHT22;1441;48.886;8.728;2022-09-09T17:01:21;17.70;89.90
2867;DHT22;1441;48.886;8.728;2022-09-09T17:03:51;17.60;90.30
2867;DHT22;1441;48.886;8.728;2022-09-09T17:06:16;17.50;91.00
2867;DHT22;1441;48.886;8.728;2022-09-09T17:08:43;17.40;91.60
2867;DHT22;1441;48.886;8.728;2022-09-09T17:11:16;17.30;92.00
2867;DHT22;1441;48.886;8.728;2022-09-09T17:13:44;17.30;92.60
2867;DHT22;1441;48.886;8.728;2022-09-09T17:16:11;17.30;92.40
2867;DHT22;1441;48.886;8.728;2022-09-09T17:18:37;17.30;93.00
2867;DHT22;1441;48.886;8.728;2022-09-09T17:21:05;17.20;92.70
2867;DHT22;1441;48.886;8.728;2022-09-09T17:23:32;17.10;93.20
2867;DHT22;1441;48.886;8.728;2022-09-09T17:25:59;17.20;93.10
2867;DHT22;1441;48.886;8.728;2022-09-09T17:28:25;17.10;93.00
2867;DHT22;1441;48.886;8.728;2022-09-09T17:30:59;17.10;93.00
2867;DHT22;1441;48.886;8.728;2022-09-09T17:33:29;17.10;92.90
2867;DHT22;1441;48.886;8.728;2022-09-09T17:35:59;17.10;92.80
2867;DHT22;1441;48.886;8.728;2022-09-09T17:38:26;17.10;93.50
2867;DHT22;1441;48.886;8.728;2022-09-09T17:41:05;17.10;94.00
2867;DHT22;1441;48.886;8.728;2022-09-09T17:43:31;17.00;93.80
2867;DHT22;1441;48.886;8.728;2022-09-09T17:46:08;17.10;93.60
2867;DHT22;1441;48.886;8.728;2022-09-09T17:48:34;17.10;92.50
2867;DHT22;1441;48.886;8.728;2022-09-09T17:51:04;17.10;92.10
2867;DHT22;1441;48.886;8.728;2022-09-09T17:53:30;17.10;92.60
2867;DHT22;1441;48.886;8.728;2022-09-09T17:56:02;17.00;92.10
2867;DHT22;1441;48.886;8.728;2022-09-09T17:58:28;17.00;92.30
2867;DHT22;1441;48.886;8.728;2022-09-09T18:00:53;17.10;90.60
2867;DHT22;1441;48.886;8.728;2022-09-09T18:03:20;17.40;89.50